createdAt,value
2019-05-17T00:00:04.236Z,10.83
2019-05-17T00:01:07.343Z,10.88
2019-05-17T00:02:07.085Z,10.88
2019-05-17T00:03:08.367Z,10.94
2019-05-17T00:04:09.765Z,10.91
2019-05-17T00:05:11.165Z,10.93
2019-05-17T00:06:12.560Z,10.88
2019-05-17T00:07:13.950Z,10.94
2019-05-17T00:08:16.475Z,10.88
2019-05-17T00:09:17.576Z,10.95
2019-05-17T00:10:18.054Z,10.88
2019-05-17T00:11:19.454Z,10.93
2019-05-17T00:12:20.847Z,10.98
2019-05-17T00:13:22.248Z,10.90
2019-05-17T00:14:23.627Z,10.81
2019-05-17T00:15:27.181Z,10.80
2019-05-17T00:16:26.832Z,10.84
2019-05-17T00:17:27.740Z,10.81
2019-05-17T00:18:29.127Z,10.80
2019-05-17T00:19:30.517Z,10.87
2019-05-17T00:20:31.907Z,10.86
2019-05-17T00:21:33.300Z,10.91
2019-05-17T00:22:36.410Z,10.87
2019-05-17T00:23:37.527Z,10.90
2019-05-17T00:24:37.400Z,10.81
2019-05-17T00:25:38.788Z,10.84
2019-05-17T00:26:40.200Z,10.88
2019-05-17T00:27:41.594Z,10.91
2019-05-17T00:28:42.980Z,10.84
2019-05-17T00:29:46.398Z,10.81
2019-05-17T00:30:46.440Z,10.84
2019-05-17T00:31:47.090Z,10.76
2019-05-17T00:32:48.488Z,10.75
2019-05-17T00:33:49.872Z,10.76
2019-05-17T00:34:51.262Z,10.76
2019-05-17T00:35:52.656Z,10.81
2019-05-17T00:36:54.045Z,10.76
2019-05-17T00:37:56.961Z,10.78
2019-05-17T00:38:56.921Z,10.75
2019-05-17T00:39:58.144Z,10.76
2019-05-17T00:40:59.539Z,10.78
2019-05-17T00:42:00.936Z,10.73
2019-05-17T00:43:02.325Z,10.73
2019-05-17T00:44:03.719Z,10.76
2019-05-17T00:45:06.581Z,10.78
2019-05-17T00:46:06.644Z,10.83
2019-05-17T00:47:07.808Z,10.73
2019-05-17T00:48:09.199Z,10.76
2019-05-17T00:49:10.594Z,10.75
2019-05-17T00:50:11.979Z,10.70
2019-05-17T00:51:13.371Z,10.76
2019-05-17T00:52:16.533Z,10.75
2019-05-17T00:53:16.398Z,10.83
2019-05-17T00:54:17.639Z,10.78
2019-05-17T00:55:18.809Z,10.76
2019-05-17T00:56:20.198Z,10.83
2019-05-17T00:57:21.594Z,10.76
2019-05-17T00:58:22.980Z,10.80
2019-05-17T00:59:26.199Z,10.81
2019-05-17T01:00:27.638Z,10.84
2019-05-17T01:01:27.161Z,10.78
2019-05-17T01:02:28.438Z,10.80
2019-05-17T01:03:29.828Z,10.78
2019-05-17T01:04:31.216Z,10.81
2019-05-17T01:05:32.610Z,10.83
2019-05-17T01:06:33.997Z,10.84
2019-05-17T01:07:37.391Z,10.83
2019-05-17T01:08:37.213Z,10.86
2019-05-17T01:09:38.103Z,10.91
2019-05-17T01:10:39.513Z,10.87
2019-05-17T01:11:40.901Z,10.87
2019-05-17T01:12:42.308Z,10.94
2019-05-17T01:13:43.694Z,10.81
2019-05-17T01:14:46.582Z,10.86
2019-05-17T01:15:47.349Z,10.90
2019-05-17T01:16:47.802Z,10.94
2019-05-17T01:17:49.205Z,10.90
2019-05-17T01:18:50.605Z,10.81
2019-05-17T01:19:51.993Z,10.87
2019-05-17T01:20:53.380Z,10.93
2019-05-17T01:21:56.684Z,10.84
2019-05-17T01:22:56.676Z,10.86
2019-05-17T01:23:57.508Z,10.87
2019-05-17T01:24:58.903Z,10.86
2019-05-17T01:26:00.292Z,10.83
2019-05-17T01:27:01.688Z,10.90
2019-05-17T01:28:03.100Z,10.80
2019-05-17T01:29:06.560Z,10.88
2019-05-17T01:30:06.848Z,10.81
2019-05-17T01:31:07.206Z,10.76
2019-05-17T01:32:08.607Z,10.84
2019-05-17T01:33:09.991Z,10.81
2019-05-17T01:34:11.384Z,10.90
2019-05-17T01:35:12.769Z,10.83
2019-05-17T01:36:14.166Z,10.90
2019-05-17T01:37:17.137Z,10.84
2019-05-17T01:38:17.752Z,10.88
2019-05-17T01:39:21.196Z,10.86
2019-05-17T01:40:19.639Z,10.80
2019-05-17T01:41:21.032Z,10.84
2019-05-17T01:42:22.417Z,10.88
2019-05-17T01:43:23.823Z,10.84
2019-05-17T01:44:27.098Z,10.84
2019-05-17T01:45:26.946Z,10.86
2019-05-17T01:46:27.909Z,10.90
2019-05-17T01:47:29.303Z,10.94
2019-05-17T01:48:30.691Z,10.98
2019-05-17T01:49:32.093Z,10.94
2019-05-17T01:50:33.483Z,10.90
2019-05-17T01:51:36.865Z,10.90
2019-05-17T01:52:37.011Z,10.93
2019-05-17T01:53:37.579Z,10.90
2019-05-17T01:54:38.979Z,10.98
2019-05-17T01:55:40.372Z,10.91
2019-05-17T01:56:41.762Z,10.95
2019-05-17T01:57:43.160Z,10.91
2019-05-17T01:58:46.822Z,10.98
2019-05-17T01:59:46.733Z,10.95
2019-05-17T02:00:47.269Z,10.90
2019-05-17T02:01:48.664Z,11.01
2019-05-17T02:02:50.063Z,11.01
2019-05-17T02:03:51.460Z,10.88
2019-05-17T02:04:52.844Z,10.95
2019-05-17T02:05:56.445Z,10.98
2019-05-17T02:06:57.255Z,10.98
2019-05-17T02:07:57.049Z,11.02
2019-05-17T02:08:58.295Z,10.99
2019-05-17T02:09:59.689Z,10.93
2019-05-17T02:11:01.081Z,10.94
2019-05-17T02:12:02.474Z,10.94
2019-05-17T02:13:06.353Z,10.99
2019-05-17T02:14:06.822Z,10.95
2019-05-17T02:15:06.968Z,10.94
2019-05-17T02:16:07.923Z,10.91
2019-05-17T02:17:09.308Z,11.02
2019-05-17T02:18:10.706Z,10.91
2019-05-17T02:19:12.087Z,10.94
2019-05-17T02:20:13.485Z,10.98
2019-05-17T02:21:16.680Z,11.02
2019-05-17T02:22:16.758Z,10.95
2019-05-17T02:23:17.574Z,10.94
2019-05-17T02:24:18.962Z,11.03
2019-05-17T02:25:20.356Z,10.98
2019-05-17T02:26:21.754Z,10.98
2019-05-17T02:27:25.181Z,10.98
2019-05-17T02:28:24.500Z,11.03
2019-05-17T02:29:25.893Z,10.99
2019-05-17T02:30:27.285Z,10.98
2019-05-17T02:31:28.676Z,10.99
2019-05-17T02:32:33.473Z,11.03
2019-05-17T02:33:33.326Z,10.99
2019-05-17T02:34:33.712Z,10.98
2019-05-17T02:35:34.167Z,10.98
2019-05-17T02:36:35.542Z,11.03
2019-05-17T02:37:36.931Z,11.01
2019-05-17T02:38:38.328Z,10.95
2019-05-17T02:39:57.088Z,11.02
2019-05-17T02:40:43.017Z,10.95
2019-05-17T02:41:43.065Z,10.98
2019-05-17T02:42:43.837Z,10.99
2019-05-17T02:43:45.220Z,11.01
2019-05-17T02:44:46.617Z,11.01
2019-05-17T02:45:48.006Z,11.01
2019-05-17T02:46:49.397Z,10.99
2019-05-17T02:47:53.440Z,10.93
2019-05-17T02:48:53.769Z,10.99
2019-05-17T02:49:53.517Z,10.95
2019-05-17T02:50:54.884Z,10.83
2019-05-17T02:51:56.269Z,10.95
2019-05-17T02:52:57.667Z,10.98
2019-05-17T02:53:59.071Z,11.03
2019-05-17T02:55:03.684Z,11.01
2019-05-17T02:56:03.268Z,10.98
2019-05-17T02:57:03.463Z,10.99
2019-05-17T02:58:04.505Z,11.01
2019-05-17T02:59:05.905Z,10.91
2019-05-17T03:00:07.300Z,10.95
2019-05-17T03:01:08.689Z,10.99
2019-05-17T03:02:12.346Z,10.98
2019-05-17T03:03:13.431Z,10.95
2019-05-17T03:04:13.030Z,10.99
2019-05-17T03:05:14.175Z,10.98
2019-05-17T03:06:15.565Z,10.98
2019-05-17T03:07:16.963Z,10.93
2019-05-17T03:08:18.351Z,10.94
2019-05-17T03:09:22.646Z,10.99
2019-05-17T03:10:25.121Z,10.93
2019-05-17T03:11:22.819Z,10.98
2019-05-17T03:12:23.882Z,10.95
2019-05-17T03:13:25.253Z,10.95
2019-05-17T03:14:26.641Z,10.98
2019-05-17T03:15:28.036Z,10.98
2019-05-17T03:16:29.427Z,11.05
2019-05-17T03:17:33.535Z,10.98
2019-05-17T03:18:33.293Z,11.01
2019-05-17T03:19:33.547Z,10.98
2019-05-17T03:20:34.937Z,10.98
2019-05-17T03:21:36.321Z,10.93
2019-05-17T03:22:37.735Z,11.03
2019-05-17T03:23:39.129Z,11.03
2019-05-17T03:24:43.675Z,11.02
2019-05-17T03:25:44.045Z,11.02
2019-05-17T03:26:43.338Z,10.99
2019-05-17T03:27:44.605Z,10.93
2019-05-17T03:28:45.979Z,10.94
2019-05-17T03:29:47.382Z,11.05
2019-05-17T03:30:48.781Z,11.08
2019-05-17T03:31:58.644Z,10.99
2019-05-17T03:32:56.291Z,10.98
2019-05-17T03:33:55.690Z,10.98
2019-05-17T03:34:55.789Z,10.94
2019-05-17T03:35:57.013Z,11.11
2019-05-17T03:36:57.220Z,11.05
2019-05-17T03:37:58.374Z,10.98
2019-05-17T03:39:02.852Z,11.01
2019-05-17T03:40:04.717Z,11.05
2019-05-17T03:41:13.792Z,11.05
2019-05-17T03:42:03.853Z,11.03
2019-05-17T03:43:05.245Z,11.05
2019-05-17T03:44:06.646Z,10.98
2019-05-17T03:45:08.037Z,10.95
2019-05-17T03:46:09.450Z,11.01
2019-05-17T03:47:12.933Z,10.95
2019-05-17T03:48:12.966Z,11.01
2019-05-17T03:49:13.554Z,10.95
2019-05-17T03:50:14.953Z,10.99
2019-05-17T03:51:16.354Z,11.03
2019-05-17T03:52:17.747Z,11.01
2019-05-17T03:53:22.613Z,11.01
2019-05-17T03:54:22.653Z,10.94
2019-05-17T03:55:23.477Z,11.01
2019-05-17T03:56:23.231Z,10.94
2019-05-17T03:57:24.637Z,10.95
2019-05-17T03:58:26.030Z,10.95
2019-05-17T03:59:27.438Z,11.06
2019-05-17T04:00:28.825Z,10.99
2019-05-17T04:01:32.634Z,11.03
2019-05-17T04:02:32.712Z,11.01
2019-05-17T04:03:35.550Z,11.05
2019-05-17T04:04:34.305Z,11.09
2019-05-17T04:05:35.700Z,11.08
2019-05-17T04:06:37.087Z,11.17
2019-05-17T04:07:38.484Z,11.13
2019-05-17T04:08:42.248Z,11.13
2019-05-17T04:09:43.777Z,11.20
2019-05-17T04:10:42.730Z,11.21
2019-05-17T04:11:43.937Z,11.27
2019-05-17T04:12:45.349Z,11.23
2019-05-17T04:13:46.747Z,11.23
2019-05-17T04:14:48.162Z,11.20
2019-05-17T04:15:52.741Z,11.12
2019-05-17T04:16:53.353Z,11.20
2019-05-17T04:17:52.882Z,11.23
2019-05-17T04:18:53.810Z,11.21
2019-05-17T04:19:55.029Z,11.19
2019-05-17T04:20:56.430Z,11.16
2019-05-17T04:21:57.823Z,11.19
2019-05-17T04:22:59.220Z,11.19
2019-05-17T04:24:03.160Z,11.30
2019-05-17T04:25:02.957Z,11.23
2019-05-17T04:26:04.318Z,11.23
2019-05-17T04:27:04.735Z,11.24
2019-05-17T04:28:06.141Z,11.19
2019-05-17T04:29:07.549Z,11.20
2019-05-17T04:30:08.956Z,11.23
2019-05-17T04:31:13.221Z,11.21
2019-05-17T04:32:13.034Z,11.17
2019-05-17T04:33:13.127Z,11.19
2019-05-17T04:34:14.499Z,11.17
2019-05-17T04:35:15.889Z,11.28
2019-05-17T04:36:17.313Z,11.20
2019-05-17T04:37:18.695Z,11.21
2019-05-17T04:38:23.332Z,11.26
2019-05-17T04:39:22.592Z,11.27
2019-05-17T04:40:23.165Z,11.28
2019-05-17T04:41:39.638Z,11.31
2019-05-17T04:42:25.526Z,11.28
2019-05-17T04:43:26.922Z,11.28
2019-05-17T04:44:28.322Z,11.21
2019-05-17T04:45:33.155Z,11.30
2019-05-17T04:46:32.668Z,11.28
2019-05-17T04:47:33.186Z,11.24
2019-05-17T04:48:33.805Z,11.36
2019-05-17T04:49:35.210Z,11.33
2019-05-17T04:50:36.604Z,11.30
2019-05-17T04:51:38.005Z,11.31
2019-05-17T04:52:42.507Z,11.28
2019-05-17T04:53:42.963Z,11.31
2019-05-17T04:54:42.476Z,11.31
2019-05-17T04:55:43.506Z,11.26
2019-05-17T04:56:44.902Z,11.42
2019-05-17T04:57:46.300Z,11.48
2019-05-17T04:58:50.243Z,11.48
2019-05-17T04:59:49.042Z,11.42
2019-05-17T05:00:53.330Z,11.36
2019-05-17T05:01:53.680Z,11.44
2019-05-17T05:02:53.168Z,11.44
2019-05-17T05:03:54.572Z,11.48
2019-05-17T05:04:55.966Z,11.44
2019-05-17T05:05:57.370Z,11.51
2019-05-17T05:06:58.766Z,11.45
2019-05-17T05:08:02.676Z,11.45
2019-05-17T05:09:02.540Z,11.49
2019-05-17T05:10:03.303Z,11.53
2019-05-17T05:11:04.430Z,11.46
2019-05-17T05:12:06.366Z,11.56
2019-05-17T05:13:06.961Z,11.57
2019-05-17T05:14:08.358Z,11.56
2019-05-17T05:15:12.020Z,11.57
2019-05-17T05:16:13.267Z,11.59
2019-05-17T05:17:12.764Z,11.63
2019-05-17T05:18:14.069Z,11.54
2019-05-17T05:19:15.224Z,11.63
2019-05-17T05:20:16.624Z,11.67
2019-05-17T05:21:18.035Z,11.67
2019-05-17T05:22:22.343Z,11.74
2019-05-17T05:23:23.560Z,11.77
2019-05-17T05:24:22.234Z,11.77
2019-05-17T05:25:23.537Z,11.79
2019-05-17T05:26:24.928Z,11.70
2019-05-17T05:27:26.326Z,11.75
2019-05-17T05:28:27.745Z,11.82
2019-05-17T05:29:29.147Z,11.85
2019-05-17T05:30:32.036Z,11.82
2019-05-17T05:31:32.120Z,11.81
2019-05-17T05:32:33.281Z,11.78
2019-05-17T05:33:34.679Z,11.79
2019-05-17T05:34:36.087Z,11.74
2019-05-17T05:35:37.479Z,11.84
2019-05-17T05:36:38.881Z,11.82
2019-05-17T05:37:42.168Z,11.87
2019-05-17T05:38:42.234Z,11.94
2019-05-17T05:39:42.995Z,11.82
2019-05-17T05:40:44.395Z,12.00
2019-05-17T05:41:45.789Z,11.93
2019-05-17T05:42:47.190Z,11.98
2019-05-17T05:43:48.588Z,12.07
2019-05-17T05:44:52.117Z,12.13
2019-05-17T05:45:53.463Z,12.21
2019-05-17T05:46:52.714Z,12.13
2019-05-17T05:47:54.108Z,12.19
2019-05-17T05:48:55.502Z,12.29
2019-05-17T05:49:56.904Z,12.26
2019-05-17T05:50:58.302Z,12.38
2019-05-17T05:52:01.793Z,12.30
2019-05-17T05:53:01.952Z,12.25
2019-05-17T05:54:02.421Z,12.41
2019-05-17T05:55:03.828Z,12.38
2019-05-17T05:56:05.233Z,12.40
2019-05-17T05:57:06.621Z,12.44
2019-05-17T05:58:08.005Z,12.51
2019-05-17T05:59:11.880Z,12.55
2019-05-17T06:00:12.458Z,12.55
2019-05-17T06:01:12.739Z,12.52
2019-05-17T06:02:13.482Z,12.67
2019-05-17T06:03:14.877Z,12.62
2019-05-17T06:04:16.273Z,12.71
2019-05-17T06:05:17.678Z,12.81
2019-05-17T06:06:21.412Z,12.84
2019-05-17T06:07:21.678Z,12.96
2019-05-17T06:08:22.725Z,12.87
2019-05-17T06:09:23.137Z,12.77
2019-05-17T06:10:24.540Z,12.98
2019-05-17T06:11:25.938Z,12.96
2019-05-17T06:12:28.112Z,13.12
2019-05-17T06:13:28.709Z,13.25
2019-05-17T06:14:32.192Z,13.32
2019-05-17T06:15:32.038Z,13.28
2019-05-17T06:16:32.835Z,13.39
2019-05-17T06:17:34.233Z,13.54
2019-05-17T06:18:35.638Z,13.81
2019-05-17T06:19:37.046Z,14.24
2019-05-17T06:20:38.446Z,14.44
2019-05-17T06:21:39.851Z,14.44
2019-05-17T06:22:42.805Z,14.39
2019-05-17T06:23:42.642Z,14.49
2019-05-17T06:24:44.033Z,14.82
2019-05-17T06:25:45.417Z,15.30
2019-05-17T06:26:46.822Z,16.55
2019-05-17T06:27:48.215Z,17.42
2019-05-17T06:28:51.748Z,17.74
2019-05-17T06:29:51.488Z,17.74
2019-05-17T06:30:52.383Z,17.49
2019-05-17T06:31:53.791Z,17.27
2019-05-17T06:32:55.197Z,17.15
2019-05-17T06:33:56.598Z,17.66
2019-05-17T06:34:58.000Z,18.42
2019-05-17T06:36:02.348Z,18.66
2019-05-17T06:37:02.286Z,18.59
2019-05-17T06:38:02.134Z,18.49
2019-05-17T06:39:03.529Z,18.21
2019-05-17T06:40:04.938Z,18.17
2019-05-17T06:41:06.347Z,18.50
2019-05-17T06:42:07.756Z,18.47
2019-05-17T06:43:09.165Z,18.56
2019-05-17T06:44:12.258Z,19.12
2019-05-17T06:45:12.443Z,19.68
2019-05-17T06:46:13.340Z,20.33
2019-05-17T06:47:14.741Z,20.46
2019-05-17T06:48:16.148Z,20.58
2019-05-17T06:49:17.556Z,20.66
2019-05-17T06:50:18.952Z,20.94
2019-05-17T06:51:21.956Z,21.71
2019-05-17T06:52:22.588Z,22.02
2019-05-17T06:53:23.151Z,22.24
2019-05-17T06:54:24.551Z,22.17
2019-05-17T06:55:25.953Z,22.39
2019-05-17T06:56:27.379Z,22.42
2019-05-17T06:57:28.791Z,22.39
2019-05-17T06:58:31.519Z,22.91
2019-05-17T06:59:31.561Z,23.12
2019-05-17T07:00:32.975Z,22.93
2019-05-17T07:01:34.382Z,22.61
2019-05-17T07:02:36.171Z,22.21
2019-05-17T07:03:37.162Z,21.96
2019-05-17T07:04:39.532Z,21.40
2019-05-17T07:05:40.358Z,20.97
2019-05-17T07:06:41.338Z,20.66
2019-05-17T07:07:42.758Z,20.31
2019-05-17T07:08:44.156Z,20.05
2019-05-17T07:09:45.550Z,19.86
2019-05-17T07:10:46.970Z,19.52
2019-05-17T07:11:48.381Z,19.40
2019-05-17T07:12:57.710Z,19.20
2019-05-17T07:13:51.184Z,18.91
2019-05-17T07:14:52.597Z,18.72
2019-05-17T07:15:54.007Z,18.38
2019-05-17T07:16:55.412Z,17.99
2019-05-17T07:17:56.816Z,17.71
2019-05-17T07:18:59.717Z,17.68
2019-05-17T07:19:59.733Z,17.57
2019-05-17T07:21:03.396Z,17.53
2019-05-17T07:22:02.333Z,17.47
2019-05-17T07:23:03.743Z,17.51
2019-05-17T07:24:05.153Z,17.58
2019-05-17T07:25:06.569Z,17.46
2019-05-17T07:26:09.220Z,17.30
2019-05-17T07:27:09.940Z,17.24
2019-05-17T07:28:10.716Z,17.18
2019-05-17T07:29:12.121Z,17.07
2019-05-17T07:30:13.521Z,16.95
2019-05-17T07:31:14.918Z,16.98
2019-05-17T07:32:16.328Z,17.86
2019-05-17T07:33:19.770Z,19.25
2019-05-17T07:34:19.938Z,20.16
2019-05-17T07:35:20.489Z,21.56
2019-05-17T07:36:21.912Z,22.64
2019-05-17T07:37:23.318Z,23.56
2019-05-17T07:38:24.734Z,24.56
2019-05-17T07:39:26.144Z,25.24
2019-05-17T07:40:27.554Z,25.76
2019-05-17T07:41:29.880Z,25.57
2019-05-17T07:42:30.349Z,25.17
2019-05-17T07:43:31.773Z,24.66
2019-05-17T07:44:33.181Z,24.27
2019-05-17T07:45:34.604Z,24.04
2019-05-17T07:46:36.017Z,23.84
2019-05-17T07:47:37.443Z,23.56
2019-05-17T07:48:40.510Z,23.49
2019-05-17T07:49:40.482Z,23.26
2019-05-17T07:50:41.619Z,23.44
2019-05-17T07:51:43.031Z,23.37
2019-05-17T07:52:44.450Z,23.16
2019-05-17T07:53:45.855Z,23.07
2019-05-17T07:54:47.284Z,23.09
2019-05-17T07:55:50.372Z,22.96
2019-05-17T07:56:50.535Z,23.06
2019-05-17T07:57:51.425Z,23.15
2019-05-17T07:58:52.836Z,22.97
2019-05-17T07:59:54.246Z,23.57
2019-05-17T08:00:55.702Z,23.93
2019-05-17T08:01:57.183Z,24.00
2019-05-17T08:02:59.907Z,24.00
2019-05-17T08:04:00.610Z,23.59
2019-05-17T08:05:01.869Z,23.25
2019-05-17T08:06:03.278Z,23.07
2019-05-17T08:07:04.690Z,22.81
2019-05-17T08:08:06.106Z,22.66
2019-05-17T08:09:13.297Z,22.70
2019-05-17T08:10:10.607Z,22.64
2019-05-17T08:11:10.594Z,22.63
2019-05-17T08:12:11.683Z,22.38
2019-05-17T08:13:25.536Z,22.15
2019-05-17T08:14:26.797Z,22.17
2019-05-17T08:15:15.851Z,21.94
2019-05-17T08:16:19.280Z,21.79
2019-05-17T08:17:19.811Z,21.33
2019-05-17T08:18:20.413Z,21.31
2019-05-17T08:19:21.362Z,21.36
2019-05-17T08:20:22.788Z,21.12
2019-05-17T08:21:24.206Z,21.61
2019-05-17T08:22:25.621Z,22.69
2019-05-17T08:23:27.035Z,23.38
2019-05-17T08:24:30.214Z,24.18
2019-05-17T08:25:30.499Z,24.97
2019-05-17T08:26:31.217Z,26.19
2019-05-17T08:27:32.642Z,27.62
2019-05-17T08:28:34.064Z,29.26
2019-05-17T08:29:35.480Z,30.07
2019-05-17T08:30:36.902Z,30.78
2019-05-17T08:31:40.183Z,31.46
2019-05-17T08:32:40.061Z,32.25
2019-05-17T08:33:41.092Z,31.76
2019-05-17T08:34:42.498Z,32.43
2019-05-17T08:35:43.950Z,31.99
2019-05-17T08:36:45.384Z,32.22
2019-05-17T08:37:49.723Z,32.07
2019-05-17T08:38:49.998Z,31.71
2019-05-17T08:39:50.521Z,31.41
2019-05-17T08:40:51.179Z,30.76
2019-05-17T08:41:52.344Z,30.36
2019-05-17T08:42:53.798Z,30.11
2019-05-17T08:43:55.215Z,29.62
2019-05-17T08:44:56.624Z,29.12
2019-05-17T08:45:59.348Z,28.76
2019-05-17T08:46:59.515Z,28.32
2019-05-17T08:48:00.838Z,28.13
2019-05-17T08:49:02.250Z,27.93
2019-05-17T08:50:03.685Z,28.11
2019-05-17T08:51:05.103Z,27.81
2019-05-17T08:52:06.513Z,27.88
2019-05-17T08:53:10.391Z,27.66
2019-05-17T08:54:10.400Z,26.96
2019-05-17T08:55:10.719Z,27.02
2019-05-17T08:56:12.132Z,27.27
2019-05-17T08:57:13.554Z,27.45
2019-05-17T08:58:14.970Z,27.91
2019-05-17T08:59:16.400Z,28.50
2019-05-17T09:00:20.438Z,29.23
2019-05-17T09:01:19.624Z,29.89
2019-05-17T09:02:20.606Z,30.38
2019-05-17T09:03:22.036Z,31.10
2019-05-17T09:04:23.450Z,31.40
2019-05-17T09:05:24.889Z,31.34
2019-05-17T09:06:26.316Z,31.59
2019-05-17T09:07:29.381Z,31.72
2019-05-17T09:08:29.853Z,31.87
2019-05-17T09:09:31.488Z,31.32
2019-05-17T09:10:32.100Z,31.00
2019-05-17T09:11:33.527Z,30.21
2019-05-17T09:12:35.011Z,29.82
2019-05-17T09:13:36.441Z,29.60
2019-05-17T09:14:39.953Z,29.45
2019-05-17T09:15:39.919Z,29.12
2019-05-17T09:16:40.619Z,28.98
2019-05-17T09:17:42.052Z,28.45
2019-05-17T09:18:43.464Z,28.57
2019-05-17T09:19:44.889Z,28.76
2019-05-17T09:20:46.320Z,28.83
2019-05-17T09:21:50.184Z,29.00
2019-05-17T09:22:50.880Z,28.76
2019-05-17T09:23:50.520Z,28.57
2019-05-17T09:24:51.930Z,28.36
2019-05-17T09:25:53.355Z,28.30
2019-05-17T09:26:54.766Z,28.72
2019-05-17T09:27:56.188Z,28.98
2019-05-17T09:28:57.608Z,29.51
2019-05-17T09:30:00.029Z,29.76
2019-05-17T09:31:00.402Z,30.57
2019-05-17T09:32:01.819Z,30.90
2019-05-17T09:33:03.239Z,31.22
2019-05-17T09:34:04.657Z,31.62
2019-05-17T09:35:06.094Z,31.94
2019-05-17T09:36:09.955Z,31.84
2019-05-17T09:37:09.861Z,32.02
2019-05-17T09:38:10.531Z,32.27
2019-05-17T09:39:11.674Z,32.32
2019-05-17T09:40:13.098Z,32.50
2019-05-17T09:41:14.517Z,32.66
2019-05-17T09:42:15.957Z,32.81
2019-05-17T09:43:17.384Z,32.80
2019-05-17T09:44:20.543Z,33.00
2019-05-17T09:45:20.372Z,33.40
2019-05-17T09:46:21.571Z,33.22
2019-05-17T09:47:22.993Z,33.60
2019-05-17T09:48:24.404Z,33.78
2019-05-17T09:49:25.829Z,33.75
2019-05-17T09:50:29.272Z,33.44
2019-05-17T09:51:30.181Z,33.05
2019-05-17T09:52:30.027Z,32.63
2019-05-17T09:53:31.447Z,31.99
2019-05-17T09:54:42.403Z,31.40
2019-05-17T09:55:34.231Z,30.91
2019-05-17T09:56:35.662Z,30.11
2019-05-17T09:57:37.074Z,29.55
2019-05-17T09:58:39.684Z,28.79
2019-05-17T09:59:40.484Z,28.40
2019-05-17T10:00:41.278Z,28.18
2019-05-17T10:01:42.718Z,27.80
2019-05-17T10:02:44.136Z,27.46
2019-05-17T10:03:45.552Z,27.48
2019-05-17T10:04:46.968Z,27.23
2019-05-17T10:05:49.576Z,26.81
2019-05-17T10:06:51.300Z,26.68
2019-05-17T10:07:51.216Z,26.64
2019-05-17T10:08:52.617Z,26.64
2019-05-17T10:09:54.052Z,26.34
2019-05-17T10:11:08.102Z,25.71
2019-05-17T10:11:56.833Z,25.29
2019-05-17T10:13:00.109Z,25.16
2019-05-17T10:14:01.313Z,25.08
2019-05-17T10:15:01.013Z,24.56
2019-05-17T10:16:02.433Z,24.39
2019-05-17T10:17:03.865Z,24.24
2019-05-17T10:18:05.273Z,24.06
2019-05-17T10:19:06.710Z,24.09
2019-05-17T10:20:10.220Z,24.27
2019-05-17T10:21:10.442Z,24.42
2019-05-17T10:22:10.866Z,24.29
2019-05-17T10:23:12.284Z,24.04
2019-05-17T10:24:13.708Z,24.00
2019-05-17T10:25:15.136Z,23.96
2019-05-17T10:26:16.587Z,24.04
2019-05-17T10:27:19.522Z,23.89
2019-05-17T10:28:20.504Z,23.93
2019-05-17T10:29:20.736Z,23.99
2019-05-17T10:30:22.152Z,23.86
2019-05-17T10:31:23.566Z,23.74
2019-05-17T10:32:25.001Z,23.59
2019-05-17T10:33:26.414Z,23.34
2019-05-17T10:34:29.381Z,22.93
2019-05-17T10:35:29.563Z,22.97
2019-05-17T10:36:30.561Z,22.82
2019-05-17T10:37:31.990Z,22.88
2019-05-17T10:38:33.387Z,22.61
2019-05-17T10:39:34.799Z,22.48
2019-05-17T10:40:36.217Z,22.29
2019-05-17T10:41:37.639Z,22.24
2019-05-17T10:42:39.623Z,21.94
2019-05-17T10:43:40.461Z,21.98
2019-05-17T10:44:47.389Z,21.93
2019-05-17T10:45:43.337Z,21.77
2019-05-17T10:46:44.738Z,21.66
2019-05-17T10:47:46.157Z,21.66
2019-05-17T10:48:49.892Z,21.63
2019-05-17T10:49:49.643Z,21.51
2019-05-17T10:50:50.315Z,21.49
2019-05-17T10:51:51.729Z,21.34
2019-05-17T10:52:53.139Z,21.15
2019-05-17T10:53:54.543Z,21.22
2019-05-17T10:54:55.946Z,20.98
2019-05-17T10:55:57.368Z,20.76
2019-05-17T10:56:59.695Z,20.64
2019-05-17T10:58:00.469Z,20.60
2019-05-17T10:59:01.579Z,20.58
2019-05-17T11:00:02.970Z,20.41
2019-05-17T11:01:04.379Z,20.35
2019-05-17T11:02:05.779Z,20.34
2019-05-17T11:03:09.601Z,20.33
2019-05-17T11:04:10.319Z,20.25
2019-05-17T11:05:10.538Z,20.22
2019-05-17T11:06:11.360Z,20.25
2019-05-17T11:07:12.725Z,20.13
2019-05-17T11:08:14.145Z,20.12
2019-05-17T11:09:15.556Z,20.01
2019-05-17T11:10:19.283Z,20.07
2019-05-17T11:11:20.095Z,19.94
2019-05-17T11:12:19.713Z,20.01
2019-05-17T11:13:21.123Z,19.83
2019-05-17T11:14:22.544Z,19.95
2019-05-17T11:15:23.959Z,20.00
2019-05-17T11:16:25.363Z,20.07
2019-05-17T11:17:26.783Z,20.13
2019-05-17T11:18:28.189Z,20.17
2019-05-17T11:19:29.593Z,20.37
2019-05-17T11:20:31.007Z,20.50
2019-05-17T11:21:32.419Z,20.69
2019-05-17T11:22:33.841Z,20.75
2019-05-17T11:23:35.252Z,21.16
2019-05-17T11:24:36.656Z,21.79
2019-05-17T11:25:43.947Z,22.20
2019-05-17T11:26:39.449Z,22.85
2019-05-17T11:27:40.872Z,23.62
2019-05-17T11:28:42.278Z,24.52
2019-05-17T11:29:43.689Z,25.36
2019-05-17T11:30:45.103Z,25.98
2019-05-17T11:31:46.524Z,26.19
2019-05-17T11:32:47.940Z,26.21
2019-05-17T11:33:49.374Z,26.71
2019-05-17T11:34:50.789Z,26.41
2019-05-17T11:35:52.203Z,26.46
2019-05-17T11:36:53.613Z,26.87
2019-05-17T11:37:55.037Z,27.31
2019-05-17T11:38:56.460Z,27.76
2019-05-17T11:39:57.869Z,27.98
2019-05-17T11:40:59.302Z,28.20
2019-05-17T11:42:00.720Z,28.51
2019-05-17T11:43:02.176Z,28.55
2019-05-17T11:44:03.572Z,29.00
2019-05-17T11:45:04.990Z,29.08
2019-05-17T11:46:06.412Z,29.17
2019-05-17T11:47:07.829Z,29.52
2019-05-17T11:48:09.237Z,29.71
2019-05-17T11:49:10.646Z,29.78
2019-05-17T11:50:12.051Z,29.79
2019-05-17T11:51:13.455Z,30.19
2019-05-17T11:52:14.876Z,30.57
2019-05-17T11:53:16.313Z,30.60
2019-05-17T11:54:17.721Z,31.19
2019-05-17T11:55:19.146Z,31.57
2019-05-17T11:56:20.564Z,31.57
2019-05-17T11:57:21.979Z,31.82
2019-05-17T11:58:23.393Z,32.19
2019-05-17T11:59:24.799Z,31.68
2019-05-17T12:00:26.219Z,31.49
2019-05-17T12:01:27.661Z,30.75
2019-05-17T12:02:29.062Z,30.10
2019-05-17T12:03:30.477Z,29.35
2019-05-17T12:04:31.886Z,28.48
2019-05-17T12:05:33.303Z,27.59
2019-05-17T12:06:34.723Z,26.93
2019-05-17T12:07:36.136Z,26.12
2019-05-17T12:08:37.557Z,25.69
2019-05-17T12:09:38.977Z,25.16
2019-05-17T12:10:40.502Z,24.64
2019-05-17T12:11:41.754Z,24.08
2019-05-17T12:12:43.176Z,23.60
2019-05-17T12:13:44.621Z,23.22
2019-05-17T12:14:46.013Z,23.07
2019-05-17T12:15:47.423Z,22.76
2019-05-17T12:16:48.839Z,22.82
2019-05-17T12:17:50.255Z,22.67
2019-05-17T12:18:51.664Z,22.61
2019-05-17T12:19:53.074Z,22.52
2019-05-17T12:20:54.478Z,22.38
2019-05-17T12:21:55.869Z,22.33
2019-05-17T12:22:57.282Z,22.33
2019-05-17T12:23:58.699Z,22.12
2019-05-17T12:25:00.098Z,22.41
2019-05-17T12:26:01.517Z,22.72
2019-05-17T12:27:02.929Z,23.03
2019-05-17T12:28:04.339Z,23.23
2019-05-17T12:29:05.751Z,23.49
2019-05-17T12:30:07.202Z,23.44
2019-05-17T12:31:08.611Z,23.26
2019-05-17T12:32:15.940Z,23.16
2019-05-17T12:33:11.480Z,23.01
2019-05-17T12:34:12.914Z,23.16
2019-05-17T12:35:14.329Z,23.14
2019-05-17T12:36:15.742Z,23.21
2019-05-17T12:37:17.148Z,23.22
2019-05-17T12:38:18.556Z,23.32
2019-05-17T12:39:19.960Z,23.62
2019-05-17T12:40:21.361Z,24.06
2019-05-17T12:41:22.782Z,24.46
2019-05-17T12:42:24.184Z,24.59
2019-05-17T12:43:25.590Z,25.01
2019-05-17T12:44:26.996Z,25.19
2019-05-17T12:45:28.401Z,25.39
2019-05-17T12:46:29.821Z,25.49
2019-05-17T12:47:31.235Z,25.49
2019-05-17T12:48:32.657Z,25.94
2019-05-17T12:49:34.069Z,26.08
2019-05-17T12:50:35.480Z,26.01
2019-05-17T12:51:36.904Z,26.06
2019-05-17T12:52:38.300Z,25.85
2019-05-17T12:53:39.722Z,25.44
2019-05-17T12:54:41.140Z,25.19
2019-05-17T12:55:42.548Z,25.04
2019-05-17T12:56:43.973Z,24.87
2019-05-17T12:57:45.385Z,24.66
2019-05-17T12:58:46.828Z,24.41
2019-05-17T12:59:48.238Z,24.33
2019-05-17T13:00:49.664Z,24.09
2019-05-17T13:01:51.075Z,23.96
2019-05-17T13:02:52.496Z,23.82
2019-05-17T13:03:53.903Z,23.79
2019-05-17T13:04:55.324Z,23.81
2019-05-17T13:05:56.734Z,23.75
2019-05-17T13:06:58.132Z,23.77
2019-05-17T13:07:59.546Z,23.50
2019-05-17T13:09:00.979Z,23.47
2019-05-17T13:10:02.411Z,23.25